Time;durP1;ratioP1;P1;durP2;ratioP2;P2;SDS_P1;SDS_P2;PMS_P1;PMS_P2;Temp;Humidity;BMP_temperature;BMP_pressure;BME280_temperature;BME280_humidity;BME280_pressure;Samples;Min_cycle;Max_cycle;Signal;HPM_P1;HPM_P2
2023/12/01 00:00:45;;;;;;;;;;;1.50;99.90;;;;;;5104617;28;19920;-71
2023/12/01 00:03:12;;;;;;;;;;;1.50;99.90;;;;;;5106282;28;19920;-71
2023/12/01 00:05:40;;;;;;;;;;;1.50;99.90;;;;;;5106685;28;20117;-71
2023/12/01 00:08:07;;;;;;;;;;;1.50;99.90;;;;;;5106721;28;19928;-71
2023/12/01 00:10:33;;;;;;;;;;;1.50;99.90;;;;;;5106471;28;19987;-71
2023/12/01 00:13:00;;;;;;;;;;;1.50;99.90;;;;;;5106576;28;20004;-71
2023/12/01 00:15:27;;;;;;;;;;;1.50;99.90;;;;;;5106109;28;20228;-71
2023/12/01 00:17:53;;;;;;;;;;;1.50;99.90;;;;;;5106419;28;19951;-71
2023/12/01 00:20:20;;;;;;;;;;;1.50;99.90;;;;;;5106578;28;19920;-70
2023/12/01 00:22:48;;;;;;;;;;;1.50;99.90;;;;;;5106320;28;19983;-71
2023/12/01 00:25:14;;;;;;;;;;;1.50;99.90;;;;;;5105864;28;19991;-71
2023/12/01 00:27:41;;;;;;;;;;;1.50;99.90;;;;;;5106469;28;19920;-71
2023/12/01 00:30:08;;;;;;;;;;;1.50;99.90;;;;;;5106622;28;19920;-71
2023/12/01 00:32:35;;;;;;;;;;;1.50;99.90;;;;;;5106251;28;19949;-71
2023/12/01 00:35:01;;;;;;;;;;;1.50;99.90;;;;;;5105566;28;19926;-71
2023/12/01 00:37:28;;;;;;;;;;;1.50;99.90;;;;;;5106271;28;20113;-71
2023/12/01 00:39:56;;;;;;;;;;;1.50;99.90;;;;;;5106106;28;19991;-72
2023/12/01 00:42:22;;;;;;;;;;;1.50;99.90;;;;;;5106177;28;19926;-71
2023/12/01 00:44:50;;;;;;;;;;;1.60;99.90;;;;;;5105518;28;20236;-71
2023/12/01 00:47:16;;;;;;;;;;;1.50;99.90;;;;;;5106207;28;20159;-71
2023/12/01 00:49:43;;;;;;;;;;;1.50;99.90;;;;;;5105992;28;19987;-71
2023/12/01 00:52:09;;;;;;;;;;;1.50;99.90;;;;;;5106010;28;20321;-71
2023/12/01 00:54:36;;;;;;;;;;;1.60;99.90;;;;;;5105542;28;19952;-72
2023/12/01 00:57:04;;;;;;;;;;;1.50;99.90;;;;;;5106011;28;20108;-71
2023/12/01 00:59:31;;;;;;;;;;;1.50;99.90;;;;;;5105542;28;19983;-71
2023/12/01 01:01:57;;;;;;;;;;;1.50;99.90;;;;;;5105565;28;19951;-71
2023/12/01 01:04:24;;;;;;;;;;;1.50;99.90;;;;;;5105410;28;19920;-71
2023/12/01 01:06:51;;;;;;;;;;;1.50;99.90;;;;;;5105670;28;19927;-71
2023/12/01 01:09:17;;;;;;;;;;;1.50;99.90;;;;;;5105483;28;19927;-71
2023/12/01 01:11:44;;;;;;;;;;;1.40;99.90;;;;;;5105260;28;19991;-71
2023/12/01 01:14:12;;;;;;;;;;;1.40;99.90;;;;;;5105277;28;19920;-71
2023/12/01 01:16:38;;;;;;;;;;;1.40;99.90;;;;;;5105394;28;19987;-71
2023/12/01 01:19:05;;;;;;;;;;;1.40;99.90;;;;;;5105097;28;19920;-71
2023/12/01 01:21:32;;;;;;;;;;;1.40;99.90;;;;;;5105017;28;20263;-70
2023/12/01 01:23:58;;;;;;;;;;;1.50;99.90;;;;;;5104970;28;19987;-71
2023/12/01 01:26:25;;;;;;;;;;;1.50;99.90;;;;;;5105184;28;19927;-71
2023/12/01 01:28:52;;;;;;;;;;;1.50;99.90;;;;;;5104820;28;19928;-71
2023/12/01 01:31:20;;;;;;;;;;;1.50;99.90;;;;;;5105287;28;19920;-71
2023/12/01 01:33:46;;;;;;;;;;;1.50;99.90;;;;;;5104677;28;19982;-71
2023/12/01 01:36:13;;;;;;;;;;;1.50;99.90;;;;;;5105125;28;19920;-71
2023/12/01 01:38:40;;;;;;;;;;;1.50;99.90;;;;;;5104894;28;19920;-71
2023/12/01 01:41:07;;;;;;;;;;;1.50;99.90;;;;;;5105032;28;19962;-71
2023/12/01 01:43:33;;;;;;;;;;;1.50;99.90;;;;;;5104700;28;20184;-71
2023/12/01 01:46:02;;;;;;;;;;;1.60;99.90;;;;;;5104678;28;19928;-71
2023/12/01 01:48:32;;;;;;;;;;;1.50;99.90;;;;;;5103971;28;19997;-71
2023/12/01 01:50:58;;;;;;;;;;;1.50;99.90;;;;;;5104412;28;19920;-72
2023/12/01 01:53:25;;;;;;;;;;;1.50;99.90;;;;;;5104569;28;19951;-71
2023/12/01 01:55:52;;;;;;;;;;;1.60;99.90;;;;;;5104458;28;19920;-71
2023/12/01 01:58:19;;;;;;;;;;;1.50;99.90;;;;;;5104690;28;20141;-71
2023/12/01 02:00:49;;;;;;;;;;;1.50;99.90;;;;;;5104223;28;19920;-71
2023/12/01 02:03:16;;;;;;;;;;;1.50;99.90;;;;;;5104341;28;19942;-71
2023/12/01 02:05:47;;;;;;;;;;;1.40;99.90;;;;;;5104417;28;19920;-71
2023/12/01 02:08:21;;;;;;;;;;;1.40;99.90;;;;;;5104218;28;19920;-71
2023/12/01 02:10:48;;;;;;;;;;;1.40;99.90;;;;;;5103866;28;19962;-71
2023/12/01 02:13:15;;;;;;;;;;;1.40;99.90;;;;;;5104072;28;19986;-71
2023/12/01 02:15:41;;;;;;;;;;;1.40;99.90;;;;;;5103831;28;19920;-71
2023/12/01 02:18:18;;;;;;;;;;;1.40;99.90;;;;;;5104219;28;19926;-71
2023/12/01 02:20:46;;;;;;;;;;;1.40;99.90;;;;;;5104372;28;19958;-72
2023/12/01 02:23:14;;;;;;;;;;;1.40;99.90;;;;;;5103663;28;20390;-71
2023/12/01 02:25:41;;;;;;;;;;;1.40;99.90;;;;;;5103800;28;20007;-71
2023/12/01 02:28:07;;;;;;;;;;;1.50;99.90;;;;;;5104157;28;19987;-71
2023/12/01 02:30:34;;;;;;;;;;;1.40;99.90;;;;;;5103916;28;19927;-71
2023/12/01 02:33:01;;;;;;;;;;;1.50;99.90;;;;;;5103975;28;19930;-71
2023/12/01 02:35:29;;;;;;;;;;;1.40;99.90;;;;;;5103632;28;19991;-71
2023/12/01 02:37:56;;;;;;;;;;;1.40;99.90;;;;;;5103900;28;19926;-71
2023/12/01 02:40:24;;;;;;;;;;;1.40;99.90;;;;;;5104120;28;19920;-71
2023/12/01 02:42:51;;;;;;;;;;;1.40;99.90;;;;;;5103725;28;20170;-71
2023/12/01 02:45:18;;;;;;;;;;;1.40;99.90;;;;;;5103596;28;20167;-71
2023/12/01 02:47:47;;;;;;;;;;;1.40;99.90;;;;;;5103558;28;20264;-71
2023/12/01 02:50:14;;;;;;;;;;;1.50;99.90;;;;;;5103503;28;19995;-69
2023/12/01 02:52:41;;;;;;;;;;;1.50;99.90;;;;;;5103743;28;19924;-72
2023/12/01 02:55:08;;;;;;;;;;;1.50;99.90;;;;;;5103124;28;19920;-71
2023/12/01 02:57:36;;;;;;;;;;;1.50;99.90;;;;;;5103395;28;19991;-71
2023/12/01 03:00:06;;;;;;;;;;;1.50;99.90;;;;;;5103667;28;19926;-71
2023/12/01 03:02:33;;;;;;;;;;;1.50;99.90;;;;;;5103699;28;19924;-71
2023/12/01 03:04:59;;;;;;;;;;;1.50;99.90;;;;;;5103301;28;19943;-71
2023/12/01 03:07:26;;;;;;;;;;;1.50;99.90;;;;;;5103666;28;19926;-71
2023/12/01 03:09:53;;;;;;;;;;;1.50;99.90;;;;;;5103277;28;19958;-70
2023/12/01 03:12:20;;;;;;;;;;;1.50;99.90;;;;;;5103391;28;19920;-71
2023/12/01 03:14:48;;;;;;;;;;;1.50;99.90;;;;;;5102783;28;20214;-71
2023/12/01 03:17:15;;;;;;;;;;;1.50;99.90;;;;;;5103635;28;19983;-71
2023/12/01 03:19:45;;;;;;;;;;;1.50;99.90;;;;;;5103041;28;20218;-71
2023/12/01 03:22:12;;;;;;;;;;;1.50;99.90;;;;;;5103304;28;20114;-71
2023/12/01 03:24:38;;;;;;;;;;;1.50;99.90;;;;;;5103347;28;19983;-71
2023/12/01 03:27:04;;;;;;;;;;;1.50;99.90;;;;;;5099852;28;19956;-71
2023/12/01 03:29:32;;;;;;;;;;;1.50;99.90;;;;;;5103113;28;19925;-71
2023/12/01 03:32:00;;;;;;;;;;;1.50;99.90;;;;;;5103269;28;20113;-71
2023/12/01 03:34:27;;;;;;;;;;;1.50;99.90;;;;;;5103188;28;19988;-71
2023/12/01 03:36:54;;;;;;;;;;;1.50;99.90;;;;;;5103374;28;20000;-72
2023/12/01 03:39:20;;;;;;;;;;;1.50;99.90;;;;;;5103099;28;20412;-71
2023/12/01 03:41:47;;;;;;;;;;;1.50;99.90;;;;;;5103256;28;19958;-70
2023/12/01 03:44:14;;;;;;;;;;;1.50;99.90;;;;;;5102856;28;19966;-71
2023/12/01 03:46:41;;;;;;;;;;;1.50;99.90;;;;;;5103141;28;19992;-72
2023/12/01 03:49:09;;;;;;;;;;;1.50;99.90;;;;;;5103299;28;20091;-71
2023/12/01 03:51:35;;;;;;;;;;;1.50;99.90;;;;;;5102844;28;20210;-71
2023/12/01 03:54:02;;;;;;;;;;;1.50;99.90;;;;;;5102930;28;19926;-71
2023/12/01 03:56:28;;;;;;;;;;;1.50;99.90;;;;;;5103068;28;19942;-71
2023/12/01 03:58:56;;;;;;;;;;;1.50;99.90;;;;;;5103029;28;19930;-71
2023/12/01 04:01:23;;;;;;;;;;;1.40;99.90;;;;;;5102928;28;19920;-70
2023/12/01 04:03:49;;;;;;;;;;;1.50;99.90;;;;;;5102937;28;19927;-71
2023/12/01 04:06:17;;;;;;;;;;;1.40;99.90;;;;;;5103074;28;19987;-71
2023/12/01 04:08:44;;;;;;;;;;;1.40;99.90;;;;;;5102975;28;19924;-71
2023/12/01 04:11:11;;;;;;;;;;;1.40;99.90;;;;;;5105044;28;19942;-71
2023/12/01 04:13:37;;;;;;;;;;;1.40;99.90;;;;;;5106138;28;20262;-71
2023/12/01 04:16:04;;;;;;;;;;;1.40;99.90;;;;;;5106660;28;19920;-71
2023/12/01 04:18:31;;;;;;;;;;;1.40;99.90;;;;;;5106541;28;19919;-72
2023/12/01 04:20:58;;;;;;;;;;;1.40;99.90;;;;;;5106000;28;20437;-71
2023/12/01 04:23:26;;;;;;;;;;;1.40;99.90;;;;;;5106269;28;19987;-71
2023/12/01 04:25:52;;;;;;;;;;;1.40;99.90;;;;;;5106115;28;19920;-71
2023/12/01 04:28:19;;;;;;;;;;;1.30;99.90;;;;;;5106006;28;19927;-71
2023/12/01 04:30:46;;;;;;;;;;;1.40;99.90;;;;;;5106355;28;19920;-71
2023/12/01 04:33:13;;;;;;;;;;;1.40;99.90;;;;;;5105858;28;19920;-70
2023/12/01 04:35:40;;;;;;;;;;;1.40;99.90;;;;;;5106296;28;19966;-70
2023/12/01 04:38:08;;;;;;;;;;;1.40;99.90;;;;;;5105980;28;19920;-72
2023/12/01 04:40:37;;;;;;;;;;;1.40;99.90;;;;;;5105893;28;20233;-71
2023/12/01 04:43:04;;;;;;;;;;;1.40;99.90;;;;;;5105826;28;19964;-71
2023/12/01 04:45:31;;;;;;;;;;;1.40;99.90;;;;;;5105829;28;19920;-71
2023/12/01 04:47:58;;;;;;;;;;;1.30;99.90;;;;;;5106125;28;19983;-72
2023/12/01 04:50:26;;;;;;;;;;;1.40;99.90;;;;;;5106093;28;19986;-71
2023/12/01 04:52:53;;;;;;;;;;;1.30;99.90;;;;;;5105785;28;19930;-71
2023/12/01 04:55:20;;;;;;;;;;;1.40;99.90;;;;;;5105706;28;19920;-71
2023/12/01 04:57:48;;;;;;;;;;;1.40;99.90;;;;;;5105732;28;19927;-71
2023/12/01 05:00:22;;;;;;;;;;;1.40;99.90;;;;;;5105615;28;19920;-72
2023/12/01 05:02:51;;;;;;;;;;;1.30;99.90;;;;;;5104907;28;20389;-70
2023/12/01 05:05:18;;;;;;;;;;;1.30;99.90;;;;;;5099981;28;19927;-71
2023/12/01 05:07:49;;;;;;;;;;;1.30;99.90;;;;;;5105294;28;19987;-71
2023/12/01 05:10:16;;;;;;;;;;;1.30;99.90;;;;;;5105635;28;19951;-71
2023/12/01 05:12:43;;;;;;;;;;;1.30;99.90;;;;;;5105511;28;19955;-69
2023/12/01 05:15:16;;;;;;;;;;;1.30;99.90;;;;;;5105132;28;19920;-71
2023/12/01 05:17:46;;;;;;;;;;;1.30;99.90;;;;;;5105380;28;19927;-71
2023/12/01 05:20:16;;;;;;;;;;;1.30;99.90;;;;;;5105307;28;19931;-71
2023/12/01 05:22:43;;;;;;;;;;;1.30;99.90;;;;;;5100290;28;19927;-71
2023/12/01 05:25:13;;;;;;;;;;;1.30;99.90;;;;;;5105014;28;19958;-71
2023/12/01 05:27:41;;;;;;;;;;;1.30;99.90;;;;;;5105111;28;20095;-71
2023/12/01 05:30:08;;;;;;;;;;;1.30;99.90;;;;;;5104936;28;20232;-71
2023/12/01 05:32:36;;;;;;;;;;;1.30;99.90;;;;;;5096574;28;19963;-71
2023/12/01 05:35:03;;;;;;;;;;;1.30;99.90;;;;;;5105049;28;19995;-71
2023/12/01 05:37:30;;;;;;;;;;;1.20;99.90;;;;;;5104691;28;19920;-71
2023/12/01 05:39:56;;;;;;;;;;;1.20;99.90;;;;;;5105130;28;19951;-71
2023/12/01 05:42:23;;;;;;;;;;;1.20;99.90;;;;;;5105005;28;19920;-71
2023/12/01 05:44:49;;;;;;;;;;;1.20;99.90;;;;;;5104740;28;19991;-71
2023/12/01 05:47:16;;;;;;;;;;;1.20;99.90;;;;;;5105133;28;19926;-71
2023/12/01 05:49:44;;;;;;;;;;;1.20;99.90;;;;;;5104622;28;19987;-71
2023/12/01 05:52:11;;;;;;;;;;;1.20;99.90;;;;;;5104898;28;19987;-71
2023/12/01 05:54:37;;;;;;;;;;;1.20;99.90;;;;;;5104169;28;19951;-71
2023/12/01 05:57:06;;;;;;;;;;;1.20;99.90;;;;;;5104331;28;19986;-70
2023/12/01 05:59:32;;;;;;;;;;;1.20;99.90;;;;;;5104501;28;19920;-71
2023/12/01 06:01:59;;;;;;;;;;;1.20;99.90;;;;;;5104788;28;19920;-71
2023/12/01 06:04:26;;;;;;;;;;;1.20;99.90;;;;;;5104462;28;19920;-71
2023/12/01 06:06:54;;;;;;;;;;;1.20;99.90;;;;;;5104483;28;20122;-71
2023/12/01 06:09:21;;;;;;;;;;;1.20;99.90;;;;;;5104173;28;19991;-71
2023/12/01 06:11:48;;;;;;;;;;;1.20;99.90;;;;;;5104152;28;20240;-71
2023/12/01 06:14:14;;;;;;;;;;;1.20;99.90;;;;;;5104226;28;19920;-71
2023/12/01 06:16:41;;;;;;;;;;;1.30;99.90;;;;;;5104443;28;20168;-71
2023/12/01 06:19:08;;;;;;;;;;;1.20;99.90;;;;;;5104455;28;19987;-70
2023/12/01 06:21:35;;;;;;;;;;;1.20;99.90;;;;;;5104329;28;20112;-71
2023/12/01 06:24:02;;;;;;;;;;;1.20;99.90;;;;;;5104130;28;19990;-71
2023/12/01 06:26:29;;;;;;;;;;;1.20;99.90;;;;;;5104228;28;19920;-71
2023/12/01 06:28:56;;;;;;;;;;;1.20;99.90;;;;;;5104186;28;20112;-71
2023/12/01 06:31:22;;;;;;;;;;;1.20;99.90;;;;;;5103938;28;19926;-71
2023/12/01 06:33:49;;;;;;;;;;;1.20;99.90;;;;;;5103111;28;20217;-71
2023/12/01 06:36:15;;;;;;;;;;;1.20;99.90;;;;;;5103892;28;19920;-71
2023/12/01 06:38:42;;;;;;;;;;;1.20;99.90;;;;;;5103873;28;20147;-76
2023/12/01 06:41:10;;;;;;;;;;;1.20;99.90;;;;;;5104043;28;19920;-71
2023/12/01 06:43:37;;;;;;;;;;;1.20;99.90;;;;;;5103432;28;20261;-71
2023/12/01 06:46:04;;;;;;;;;;;1.20;99.90;;;;;;5103944;28;19956;-71
2023/12/01 06:48:31;;;;;;;;;;;1.20;99.90;;;;;;5103929;28;19983;-71
2023/12/01 06:50:57;;;;;;;;;;;1.20;99.90;;;;;;5102914;28;19958;-70
2023/12/01 06:53:24;;;;;;;;;;;1.20;99.90;;;;;;5103748;28;20058;-71
2023/12/01 06:55:51;;;;;;;;;;;1.20;99.90;;;;;;5103176;28;19991;-71
2023/12/01 06:58:19;;;;;;;;;;;1.20;99.90;;;;;;5101736;28;19920;-70
2023/12/01 07:00:46;;;;;;;;;;;1.20;99.90;;;;;;5102498;28;20222;-71
2023/12/01 07:03:14;;;;;;;;;;;1.20;99.90;;;;;;5103104;28;20008;-71
2023/12/01 07:05:43;;;;;;;;;;;1.10;99.90;;;;;;5103725;28;19962;-71
2023/12/01 07:08:12;;;;;;;;;;;1.10;99.90;;;;;;5103762;28;20087;-71
2023/12/01 07:10:39;;;;;;;;;;;1.20;99.90;;;;;;5100534;28;19920;-72
2023/12/01 07:13:05;;;;;;;;;;;1.20;99.90;;;;;;5103157;28;19939;-71
2023/12/01 07:15:33;;;;;;;;;;;1.20;99.90;;;;;;5102700;28;20016;-71
2023/12/01 07:18:00;;;;;;;;;;;1.20;99.90;;;;;;5101895;28;19948;-71
2023/12/01 07:20:27;;;;;;;;;;;1.10;99.90;;;;;;5103405;28;19995;-71
2023/12/01 07:22:54;;;;;;;;;;;1.10;99.90;;;;;;5102578;28;19932;-71
2023/12/01 07:25:24;;;;;;;;;;;1.10;99.90;;;;;;5102539;28;19920;-71
2023/12/01 07:27:51;;;;;;;;;;;1.20;99.90;;;;;;5103083;28;19920;-71
2023/12/01 07:30:18;;;;;;;;;;;1.20;99.90;;;;;;5103367;28;19952;-71
2023/12/01 07:32:46;;;;;;;;;;;1.10;99.90;;;;;;5103075;28;19920;-71
2023/12/01 07:35:13;;;;;;;;;;;1.10;99.90;;;;;;5101861;28;20100;-71
2023/12/01 07:37:42;;;;;;;;;;;1.20;99.90;;;;;;5101958;28;20160;-71
2023/12/01 07:40:09;;;;;;;;;;;1.20;99.90;;;;;;5101462;28;19982;-71
2023/12/01 07:42:37;;;;;;;;;;;1.10;99.90;;;;;;5102522;28;20055;-71
2023/12/01 07:45:03;;;;;;;;;;;1.20;99.90;;;;;;5103018;28;20272;-70
2023/12/01 07:47:30;;;;;;;;;;;1.20;99.90;;;;;;5107038;28;19920;-71
2023/12/01 07:49:59;;;;;;;;;;;1.20;99.90;;;;;;5113460;28;20106;-71
2023/12/01 07:52:25;;;;;;;;;;;1.50;99.90;;;;;;5106603;28;19924;-71
2023/12/01 07:54:52;;;;;;;;;;;1.20;99.90;;;;;;5101355;28;20150;-71
2023/12/01 07:57:19;;;;;;;;;;;1.10;99.90;;;;;;5102700;28;19987;-71
2023/12/01 07:59:45;;;;;;;;;;;1.10;99.90;;;;;;5106619;28;19924;-71
2023/12/01 08:02:12;;;;;;;;;;;1.20;99.90;;;;;;5107327;28;20247;-72
2023/12/01 08:04:38;;;;;;;;;;;1.20;99.90;;;;;;5109010;28;19927;-71
2023/12/01 08:07:07;;;;;;;;;;;1.20;99.90;;;;;;5106630;28;19928;-71
2023/12/01 08:09:34;;;;;;;;;;;1.10;99.90;;;;;;5104820;28;19920;-72
2023/12/01 08:12:01;;;;;;;;;;;1.10;99.90;;;;;;5105265;28;19987;-71
2023/12/01 08:14:28;;;;;;;;;;;1.10;99.90;;;;;;5106020;28;19920;-71
2023/12/01 08:16:54;;;;;;;;;;;1.10;99.90;;;;;;5106196;28;19928;-71
2023/12/01 08:19:21;;;;;;;;;;;1.10;99.90;;;;;;5106356;28;19926;-71
2023/12/01 08:21:48;;;;;;;;;;;1.10;99.90;;;;;;5106430;28;19983;-71
2023/12/01 08:24:17;;;;;;;;;;;1.10;99.90;;;;;;5105616;28;19940;-71
2023/12/01 08:26:43;;;;;;;;;;;1.00;99.90;;;;;;5104890;28;19946;-71
2023/12/01 08:29:10;;;;;;;;;;;1.10;99.90;;;;;;5106291;28;19920;-71
2023/12/01 08:31:38;;;;;;;;;;;1.10;99.90;;;;;;5104942;28;20109;-71
2023/12/01 08:34:07;;;;;;;;;;;1.10;99.90;;;;;;5105765;28;19928;-70
2023/12/01 08:36:34;;;;;;;;;;;1.10;99.90;;;;;;5106414;28;20201;-71
2023/12/01 08:39:02;;;;;;;;;;;1.10;99.90;;;;;;5099527;28;19928;-71
2023/12/01 08:41:30;;;;;;;;;;;1.10;99.90;;;;;;5101819;28;20214;-71
2023/12/01 08:43:57;;;;;;;;;;;1.20;99.90;;;;;;5105389;28;19934;-71
2023/12/01 08:46:23;;;;;;;;;;;1.20;99.90;;;;;;5105664;28;19995;-71
2023/12/01 08:48:50;;;;;;;;;;;1.20;99.90;;;;;;5104179;28;19927;-71
2023/12/01 08:51:17;;;;;;;;;;;1.30;99.90;;;;;;5105401;28;20258;-71
2023/12/01 08:53:43;;;;;;;;;;;1.40;99.90;;;;;;5104962;28;19939;-71
2023/12/01 08:56:10;;;;;;;;;;;1.40;99.90;;;;;;5105317;28;19924;-71
2023/12/01 08:58:38;;;;;;;;;;;1.50;99.90;;;;;;5105603;28;19920;-71
2023/12/01 09:01:05;;;;;;;;;;;1.50;99.90;;;;;;5105360;28;21303;-71
2023/12/01 09:03:32;;;;;;;;;;;1.50;99.90;;;;;;5104815;28;20248;-70
2023/12/01 09:05:59;;;;;;;;;;;1.50;99.90;;;;;;5105069;28;19920;-71
2023/12/01 09:08:26;;;;;;;;;;;1.50;99.90;;;;;;5105358;28;19926;-72
2023/12/01 09:10:52;;;;;;;;;;;1.60;99.90;;;;;;5104521;28;20232;-71
2023/12/01 09:13:19;;;;;;;;;;;1.50;99.90;;;;;;5104927;28;19926;-71
2023/12/01 09:15:47;;;;;;;;;;;1.50;99.90;;;;;;5105341;28;20155;-72
2023/12/01 09:18:14;;;;;;;;;;;1.60;99.90;;;;;;5105094;28;19999;-71
2023/12/01 09:20:41;;;;;;;;;;;1.60;99.90;;;;;;5104304;28;19942;-71
2023/12/01 09:23:08;;;;;;;;;;;1.60;99.90;;;;;;5105115;28;20007;-72
2023/12/01 09:25:35;;;;;;;;;;;1.60;99.90;;;;;;5102736;28;20160;-71
2023/12/01 09:28:02;;;;;;;;;;;1.60;99.90;;;;;;5105133;28;19920;-71
2023/12/01 09:30:28;;;;;;;;;;;1.60;99.90;;;;;;5105017;28;20260;-71
2023/12/01 09:32:57;;;;;;;;;;;1.70;99.90;;;;;;5104961;28;20002;-71
2023/12/01 09:35:26;;;;;;;;;;;1.70;99.90;;;;;;5104229;28;19926;-71
2023/12/01 09:37:52;;;;;;;;;;;1.70;99.90;;;;;;5104653;28;19920;-71
2023/12/01 09:40:19;;;;;;;;;;;1.70;99.90;;;;;;5105146;28;19920;-71
2023/12/01 09:42:47;;;;;;;;;;;1.60;99.90;;;;;;5104752;28;19950;-71
2023/12/01 09:45:17;;;;;;;;;;;1.60;99.90;;;;;;5104013;28;19934;-71
2023/12/01 09:47:48;;;;;;;;;;;1.60;99.90;;;;;;5104648;28;20179;-71
2023/12/01 09:50:16;;;;;;;;;;;1.60;99.90;;;;;;5098459;28;20279;-71
2023/12/01 09:52:43;;;;;;;;;;;1.60;99.90;;;;;;5103637;28;19920;-71
2023/12/01 09:55:09;;;;;;;;;;;1.70;99.90;;;;;;5102411;28;20244;-70
2023/12/01 09:57:37;;;;;;;;;;;1.70;99.90;;;;;;5102991;28;19920;-72
2023/12/01 10:00:10;;;;;;;;;;;1.70;99.90;;;;;;5104558;28;20091;-71
2023/12/01 10:02:38;;;;;;;;;;;1.70;99.90;;;;;;5104485;28;19924;-71
2023/12/01 10:05:06;;;;;;;;;;;1.70;99.90;;;;;;5103966;28;20209;-71
2023/12/01 10:07:34;;;;;;;;;;;1.70;99.90;;;;;;5103267;28;19957;-71
2023/12/01 10:10:02;;;;;;;;;;;1.80;99.90;;;;;;5103893;28;19927;-71
2023/12/01 10:12:41;;;;;;;;;;;1.80;99.90;;;;;;5103576;28;19958;-72
2023/12/01 10:15:08;;;;;;;;;;;1.80;99.90;;;;;;5102901;28;20217;-71
2023/12/01 10:17:34;;;;;;;;;;;1.90;99.90;;;;;;5103731;28;19973;-72
2023/12/01 10:20:03;;;;;;;;;;;1.80;99.90;;;;;;5102921;28;19920;-71
2023/12/01 10:22:30;;;;;;;;;;;1.80;99.90;;;;;;5104204;28;19920;-71
2023/12/01 10:25:04;;;;;;;;;;;1.80;99.90;;;;;;5103387;28;20198;-72
2023/12/01 10:27:31;;;;;;;;;;;1.80;99.90;;;;;;5103191;28;20114;-72
2023/12/01 10:30:10;;;;;;;;;;;1.80;99.90;;;;;;5104151;28;19935;-71
2023/12/01 10:32:36;;;;;;;;;;;1.70;99.90;;;;;;5103810;28;19951;-71
2023/12/01 10:35:04;;;;;;;;;;;1.70;99.90;;;;;;5103560;28;19920;-72
2023/12/01 10:37:31;;;;;;;;;;;1.70;99.90;;;;;;5103655;28;20289;-71
2023/12/01 10:40:00;;;;;;;;;;;1.70;99.90;;;;;;5104093;28;19959;-72
2023/12/01 10:42:28;;;;;;;;;;;1.70;99.90;;;;;;5103700;28;20265;-71
2023/12/01 10:44:56;;;;;;;;;;;1.70;99.90;;;;;;5103400;28;19990;-72
2023/12/01 10:47:25;;;;;;;;;;;1.60;99.90;;;;;;5103823;28;20156;-72
2023/12/01 10:49:52;;;;;;;;;;;1.60;99.90;;;;;;5103663;28;19920;-72
2023/12/01 10:52:19;;;;;;;;;;;1.50;99.90;;;;;;5103876;28;19947;-72
2023/12/01 10:54:47;;;;;;;;;;;1.50;99.90;;;;;;5102803;28;19979;-72
2023/12/01 10:57:21;;;;;;;;;;;1.50;99.90;;;;;;5097692;28;19921;-72
2023/12/01 10:59:49;;;;;;;;;;;1.50;99.90;;;;;;5103565;28;19927;-72
2023/12/01 11:02:16;;;;;;;;;;;1.50;99.90;;;;;;5103682;28;19920;-72
2023/12/01 11:04:44;;;;;;;;;;;1.60;99.90;;;;;;5102690;28;20125;-71
2023/12/01 11:07:21;;;;;;;;;;;1.60;99.90;;;;;;5103517;28;19921;-71
2023/12/01 11:09:54;;;;;;;;;;;1.60;99.90;;;;;;5102093;28;20006;-72
2023/12/01 11:12:25;;;;;;;;;;;1.60;99.90;;;;;;5101345;28;19923;-71
2023/12/01 11:14:53;;;;;;;;;;;1.60;99.90;;;;;;5102710;28;19920;-72
2023/12/01 11:17:20;;;;;;;;;;;1.60;99.90;;;;;;5103403;28;19920;-73
2023/12/01 11:19:47;;;;;;;;;;;1.60;99.90;;;;;;5105528;28;19983;-72
2023/12/01 11:22:37;;;;;;;;;;;1.60;99.90;;;;;;5101110;28;19920;-73
2023/12/01 11:25:05;;;;;;;;;;;1.60;99.90;;;;;;5105801;28;19920;-71
2023/12/01 11:27:33;;;;;;;;;;;1.60;99.90;;;;;;5107562;28;20091;-71
2023/12/01 11:30:06;;;;;;;;;;;1.70;99.90;;;;;;5105806;28;20124;-72
2023/12/01 11:32:33;;;;;;;;;;;1.70;99.90;;;;;;5107249;28;19920;-71
2023/12/01 11:35:04;;;;;;;;;;;1.70;99.90;;;;;;5105138;28;19928;-71
2023/12/01 11:37:45;;;;;;;;;;;1.70;99.90;;;;;;5107464;28;19961;-73
2023/12/01 11:40:22;;;;;;;;;;;1.80;99.90;;;;;;5106917;28;20214;-72
2023/12/01 11:42:50;;;;;;;;;;;1.70;99.90;;;;;;5106987;28;20285;-72
2023/12/01 11:45:17;;;;;;;;;;;1.60;99.90;;;;;;5106731;28;19952;-72
2023/12/01 11:47:43;;;;;;;;;;;1.60;99.90;;;;;;5106619;28;19920;-71
2023/12/01 11:50:13;;;;;;;;;;;1.60;99.90;;;;;;5106899;28;19924;-71
2023/12/01 11:52:40;;;;;;;;;;;1.60;99.90;;;;;;5106941;28;19926;-72
2023/12/01 11:55:15;;;;;;;;;;;1.50;99.90;;;;;;5106694;28;19951;-71
2023/12/01 11:57:51;;;;;;;;;;;1.50;99.90;;;;;;5107073;28;19959;-71
2023/12/01 12:00:19;;;;;;;;;;;1.40;99.90;;;;;;5101002;28;19954;-71
2023/12/01 12:02:46;;;;;;;;;;;1.40;99.90;;;;;;5106785;28;20328;-71
2023/12/01 12:05:12;;;;;;;;;;;1.40;99.90;;;;;;5106686;28;20210;-71
2023/12/01 12:07:41;;;;;;;;;;;1.30;99.90;;;;;;5106866;28;19987;-72
2023/12/01 12:10:08;;;;;;;;;;;1.30;99.90;;;;;;5105429;28;19926;-72
2023/12/01 12:12:35;;;;;;;;;;;1.30;99.90;;;;;;5105221;28;19987;-72
2023/12/01 12:15:05;;;;;;;;;;;1.40;99.90;;;;;;5106146;28;19983;-71
2023/12/01 12:17:33;;;;;;;;;;;1.30;99.90;;;;;;5106393;28;19920;-71
2023/12/01 12:20:00;;;;;;;;;;;1.30;99.90;;;;;;5104751;28;19928;-71
2023/12/01 12:22:27;;;;;;;;;;;1.30;99.90;;;;;;5106542;28;19988;-71
2023/12/01 12:24:53;;;;;;;;;;;1.20;99.90;;;;;;5105781;28;19927;-71
2023/12/01 12:27:20;;;;;;;;;;;1.20;99.90;;;;;;5106568;28;19927;-72
2023/12/01 12:29:47;;;;;;;;;;;1.20;99.90;;;;;;5106161;28;19920;-71
2023/12/01 12:32:14;;;;;;;;;;;1.20;99.90;;;;;;5105517;28;19960;-71
2023/12/01 12:34:42;;;;;;;;;;;1.20;99.90;;;;;;5106374;28;19978;-71
2023/12/01 12:37:11;;;;;;;;;;;1.20;99.90;;;;;;5105649;28;19920;-71
2023/12/01 12:39:37;;;;;;;;;;;1.30;99.90;;;;;;5105854;28;19919;-71
2023/12/01 12:42:04;;;;;;;;;;;1.30;99.90;;;;;;5105974;28;19983;-72
2023/12/01 12:44:31;;;;;;;;;;;1.30;99.90;;;;;;5105399;28;20238;-71
2023/12/01 12:46:57;;;;;;;;;;;1.30;99.90;;;;;;5106086;28;19952;-71
2023/12/01 12:49:24;;;;;;;;;;;1.30;99.90;;;;;;5105949;28;19970;-71
2023/12/01 12:51:52;;;;;;;;;;;1.30;99.90;;;;;;5103803;28;20087;-71
2023/12/01 12:54:19;;;;;;;;;;;1.30;99.90;;;;;;5104491;28;19920;-71
2023/12/01 12:56:45;;;;;;;;;;;1.30;99.90;;;;;;5105649;28;19942;-70
2023/12/01 12:59:12;;;;;;;;;;;1.30;99.90;;;;;;5105805;28;19920;-70
2023/12/01 13:01:38;;;;;;;;;;;1.30;99.90;;;;;;5105568;28;19951;-71
2023/12/01 13:04:05;;;;;;;;;;;1.20;99.90;;;;;;5105462;28;19987;-70
2023/12/01 13:06:32;;;;;;;;;;;1.20;99.90;;;;;;5105709;28;20282;-71
2023/12/01 13:09:00;;;;;;;;;;;1.20;99.90;;;;;;5104474;28;19920;-71
2023/12/01 13:11:27;;;;;;;;;;;1.20;99.90;;;;;;5105805;28;19959;-71
2023/12/01 13:13:53;;;;;;;;;;;1.20;99.90;;;;;;5105177;28;19920;-71
2023/12/01 13:16:20;;;;;;;;;;;1.20;99.90;;;;;;5105401;28;20207;-71
2023/12/01 13:18:46;;;;;;;;;;;1.20;99.90;;;;;;5105346;28;19988;-71
2023/12/01 13:21:14;;;;;;;;;;;1.30;99.90;;;;;;5105761;28;19927;-71
2023/12/01 13:23:40;;;;;;;;;;;1.30;99.90;;;;;;5104920;28;19920;-71
2023/12/01 13:26:08;;;;;;;;;;;1.30;99.90;;;;;;5105631;28;20170;-71
2023/12/01 13:28:35;;;;;;;;;;;1.30;99.90;;;;;;5105238;28;19920;-72
2023/12/01 13:31:02;;;;;;;;;;;1.20;99.90;;;;;;5105163;28;19926;-71
2023/12/01 13:33:29;;;;;;;;;;;1.20;99.90;;;;;;5104487;28;19920;-71
2023/12/01 13:35:55;;;;;;;;;;;1.20;99.90;;;;;;5104686;28;19928;-71
2023/12/01 13:38:22;;;;;;;;;;;1.20;99.90;;;;;;5104944;28;19920;-72
2023/12/01 13:40:48;;;;;;;;;;;1.10;99.90;;;;;;5105236;28;19920;-71
2023/12/01 13:43:15;;;;;;;;;;;1.20;99.90;;;;;;5103246;28;20236;-71
2023/12/01 13:45:42;;;;;;;;;;;1.20;99.90;;;;;;5105240;28;19920;-71
2023/12/01 13:48:09;;;;;;;;;;;1.10;99.90;;;;;;5105083;28;20150;-71
2023/12/01 13:50:36;;;;;;;;;;;1.10;99.90;;;;;;5104952;28;19927;-71
2023/12/01 13:53:02;;;;;;;;;;;1.10;99.90;;;;;;5103510;28;19927;-71
2023/12/01 13:55:30;;;;;;;;;;;1.10;99.90;;;;;;5104589;28;19965;-74
2023/12/01 13:57:57;;;;;;;;;;;1.10;99.90;;;;;;5104804;28;19927;-71
2023/12/01 14:00:25;;;;;;;;;;;1.10;99.90;;;;;;5104740;28;19955;-71
2023/12/01 14:02:52;;;;;;;;;;;1.10;99.90;;;;;;5104792;28;20158;-71
2023/12/01 14:05:18;;;;;;;;;;;1.10;99.90;;;;;;5104763;28;19920;-71
2023/12/01 14:07:45;;;;;;;;;;;1.10;99.90;;;;;;5104028;28;19920;-71
2023/12/01 14:10:12;;;;;;;;;;;1.20;99.90;;;;;;5097797;28;19920;-71
2023/12/01 14:12:39;;;;;;;;;;;1.20;99.90;;;;;;5104556;28;19951;-71
2023/12/01 14:15:06;;;;;;;;;;;1.10;99.90;;;;;;5105331;28;19959;-70
2023/12/01 14:17:35;;;;;;;;;;;1.20;99.90;;;;;;5104362;28;19920;-71
2023/12/01 14:20:01;;;;;;;;;;;1.10;99.90;;;;;;5102491;28;19958;-71
2023/12/01 14:22:29;;;;;;;;;;;1.10;99.90;;;;;;5104464;28;19927;-72
2023/12/01 14:24:56;;;;;;;;;;;1.00;99.90;;;;;;5104003;28;19928;-71
2023/12/01 14:27:22;;;;;;;;;;;1.10;99.90;;;;;;5104521;28;20177;-72
2023/12/01 14:29:49;;;;;;;;;;;1.10;99.90;;;;;;5104228;28;19927;-71
2023/12/01 14:32:16;;;;;;;;;;;1.10;99.90;;;;;;5098280;28;19987;-71